sensor_id;sensor_type;location;lat;lon;timestamp;P1;durP1;ratioP1;P2;durP2;ratioP2
40635;SDS011;26642;55.766;37.828;2022-12-18T00:01:45;7.63;;;4.90;;
40635;SDS011;26642;55.766;37.828;2022-12-18T00:04:21;7.22;;;5.05;;
40635;SDS011;26642;55.766;37.828;2022-12-18T00:06:49;7.85;;;5.00;;
40635;SDS011;26642;55.766;37.828;2022-12-18T00:09:16;6.40;;;4.88;;
40635;SDS011;26642;55.766;37.828;2022-12-18T00:11:42;6.55;;;5.13;;
40635;SDS011;26642;55.766;37.828;2022-12-18T00:14:09;7.13;;;5.47;;
40635;SDS011;26642;55.766;37.828;2022-12-18T00:16:37;7.97;;;5.28;;
40635;SDS011;26642;55.766;37.828;2022-12-18T00:19:03;6.68;;;4.70;;
40635;SDS011;26642;55.766;37.828;2022-12-18T00:21:30;6.32;;;4.60;;
40635;SDS011;26642;55.766;37.828;2022-12-18T00:23:58;7.53;;;5.40;;
40635;SDS011;26642;55.766;37.828;2022-12-18T00:26:26;7.18;;;5.30;;
40635;SDS011;26642;55.766;37.828;2022-12-18T00:29:02;6.00;;;4.53;;
40635;SDS011;26642;55.766;37.828;2022-12-18T00:31:30;6.25;;;4.40;;
40635;SDS011;26642;55.766;37.828;2022-12-18T00:33:58;6.03;;;4.57;;
40635;SDS011;26642;55.766;37.828;2022-12-18T00:36:25;7.53;;;5.25;;
40635;SDS011;26642;55.766;37.828;2022-12-18T00:38:54;7.68;;;5.38;;
40635;SDS011;26642;55.766;37.828;2022-12-18T00:41:21;7.93;;;4.45;;
40635;SDS011;26642;55.766;37.828;2022-12-18T00:44:07;6.05;;;5.00;;
40635;SDS011;26642;55.766;37.828;2022-12-18T00:46:35;5.68;;;4.60;;
40635;SDS011;26642;55.766;37.828;2022-12-18T00:49:00;7.05;;;4.97;;
40635;SDS011;26642;55.766;37.828;2022-12-18T00:51:27;6.85;;;4.85;;
40635;SDS011;26642;55.766;37.828;2022-12-18T00:53:53;5.85;;;4.78;;
40635;SDS011;26642;55.766;37.828;2022-12-18T00:56:23;7.70;;;5.13;;
40635;SDS011;26642;55.766;37.828;2022-12-18T00:58:49;6.93;;;4.70;;
40635;SDS011;26642;55.766;37.828;2022-12-18T01:01:15;6.63;;;5.00;;
40635;SDS011;26642;55.766;37.828;2022-12-18T01:03:42;6.00;;;4.53;;
40635;SDS011;26642;55.766;37.828;2022-12-18T01:06:09;6.15;;;4.85;;
40635;SDS011;26642;55.766;37.828;2022-12-18T01:08:37;5.43;;;4.55;;
40635;SDS011;26642;55.766;37.828;2022-12-18T01:11:10;5.63;;;4.22;;
40635;SDS011;26642;55.766;37.828;2022-12-18T01:13:39;6.07;;;4.65;;
40635;SDS011;26642;55.766;37.828;2022-12-18T01:16:06;5.32;;;4.50;;
40635;SDS011;26642;55.766;37.828;2022-12-18T01:18:34;6.47;;;4.68;;
40635;SDS011;26642;55.766;37.828;2022-12-18T01:21:00;7.25;;;5.15;;
40635;SDS011;26642;55.766;37.828;2022-12-18T01:23:30;5.78;;;4.30;;
40635;SDS011;26642;55.766;37.828;2022-12-18T01:26:03;6.55;;;5.15;;
40635;SDS011;26642;55.766;37.828;2022-12-18T01:28:34;6.35;;;4.88;;
40635;SDS011;26642;55.766;37.828;2022-12-18T01:31:15;6.07;;;4.57;;
40635;SDS011;26642;55.766;37.828;2022-12-18T01:33:41;7.68;;;5.07;;
40635;SDS011;26642;55.766;37.828;2022-12-18T01:36:07;5.80;;;4.45;;
40635;SDS011;26642;55.766;37.828;2022-12-18T01:38:34;6.55;;;4.50;;
40635;SDS011;26642;55.766;37.828;2022-12-18T01:41:00;5.55;;;4.50;;
40635;SDS011;26642;55.766;37.828;2022-12-18T01:46:26;6.63;;;4.78;;
40635;SDS011;26642;55.766;37.828;2022-12-18T01:48:56;6.15;;;4.68;;
40635;SDS011;26642;55.766;37.828;2022-12-18T01:51:25;7.40;;;5.20;;
40635;SDS011;26642;55.766;37.828;2022-12-18T01:53:52;8.40;;;4.55;;
40635;SDS011;26642;55.766;37.828;2022-12-18T01:56:19;6.00;;;4.35;;
40635;SDS011;26642;55.766;37.828;2022-12-18T01:59:00;5.05;;;4.18;;
40635;SDS011;26642;55.766;37.828;2022-12-18T02:01:30;5.78;;;4.35;;
40635;SDS011;26642;55.766;37.828;2022-12-18T02:09:32;6.37;;;4.43;;
40635;SDS011;26642;55.766;37.828;2022-12-18T02:15:31;5.95;;;4.47;;
40635;SDS011;26642;55.766;37.828;2022-12-18T02:17:51;6.82;;;4.78;;
40635;SDS011;26642;55.766;37.828;2022-12-18T02:20:36;5.13;;;4.35;;
40635;SDS011;26642;55.766;37.828;2022-12-18T02:26:30;5.20;;;4.55;;
40635;SDS011;26642;55.766;37.828;2022-12-18T02:29:08;5.30;;;4.53;;
40635;SDS011;26642;55.766;37.828;2022-12-18T02:31:54;4.82;;;4.32;;
40635;SDS011;26642;55.766;37.828;2022-12-18T02:34:24;4.90;;;3.95;;
40635;SDS011;26642;55.766;37.828;2022-12-18T02:36:53;6.68;;;4.43;;
40635;SDS011;26642;55.766;37.828;2022-12-18T02:39:21;5.75;;;4.40;;
40635;SDS011;26642;55.766;37.828;2022-12-18T02:42:02;5.80;;;4.70;;
40635;SDS011;26642;55.766;37.828;2022-12-18T02:44:46;5.18;;;4.05;;
40635;SDS011;26642;55.766;37.828;2022-12-18T02:47:18;6.28;;;4.57;;
40635;SDS011;26642;55.766;37.828;2022-12-18T02:52:55;6.75;;;4.60;;
40635;SDS011;26642;55.766;37.828;2022-12-18T02:55:33;5.45;;;4.22;;
40635;SDS011;26642;55.766;37.828;2022-12-18T03:01:38;5.60;;;4.20;;
40635;SDS011;26642;55.766;37.828;2022-12-18T03:07:12;5.68;;;4.63;;
40635;SDS011;26642;55.766;37.828;2022-12-18T03:09:55;5.78;;;4.05;;
40635;SDS011;26642;55.766;37.828;2022-12-18T03:12:32;5.43;;;4.32;;
40635;SDS011;26642;55.766;37.828;2022-12-18T03:18:02;4.63;;;4.13;;
40635;SDS011;26642;55.766;37.828;2022-12-18T03:20:31;5.90;;;4.82;;
40635;SDS011;26642;55.766;37.828;2022-12-18T03:23:07;4.95;;;4.28;;
40635;SDS011;26642;55.766;37.828;2022-12-18T03:25:39;5.70;;;4.35;;
40635;SDS011;26642;55.766;37.828;2022-12-18T03:28:09;4.57;;;3.97;;
40635;SDS011;26642;55.766;37.828;2022-12-18T03:30:41;5.85;;;4.22;;
40635;SDS011;26642;55.766;37.828;2022-12-18T03:33:10;6.47;;;4.50;;
40635;SDS011;26642;55.766;37.828;2022-12-18T03:35:44;4.75;;;3.75;;
40635;SDS011;26642;55.766;37.828;2022-12-18T03:38:12;5.47;;;3.85;;
40635;SDS011;26642;55.766;37.828;2022-12-18T03:40:44;5.32;;;3.90;;
40635;SDS011;26642;55.766;37.828;2022-12-18T03:46:17;5.53;;;4.55;;
40635;SDS011;26642;55.766;37.828;2022-12-18T03:48:59;5.25;;;4.10;;
40635;SDS011;26642;55.766;37.828;2022-12-18T03:51:38;5.07;;;4.07;;
40635;SDS011;26642;55.766;37.828;2022-12-18T03:54:17;5.65;;;3.92;;
40635;SDS011;26642;55.766;37.828;2022-12-18T03:56:59;4.85;;;3.88;;
40635;SDS011;26642;55.766;37.828;2022-12-18T03:59:37;6.38;;;4.10;;
40635;SDS011;26642;55.766;37.828;2022-12-18T04:02:04;5.40;;;4.38;;
40635;SDS011;26642;55.766;37.828;2022-12-18T04:04:34;5.53;;;4.15;;
40635;SDS011;26642;55.766;37.828;2022-12-18T04:07:05;6.43;;;4.10;;
40635;SDS011;26642;55.766;37.828;2022-12-18T04:09:33;5.03;;;4.18;;
40635;SDS011;26642;55.766;37.828;2022-12-18T04:12:00;8.43;;;4.03;;
40635;SDS011;26642;55.766;37.828;2022-12-18T04:14:26;4.35;;;3.80;;
40635;SDS011;26642;55.766;37.828;2022-12-18T04:16:55;4.95;;;3.90;;
40635;SDS011;26642;55.766;37.828;2022-12-18T04:19:27;5.45;;;4.07;;
40635;SDS011;26642;55.766;37.828;2022-12-18T04:21:54;5.15;;;3.80;;
40635;SDS011;26642;55.766;37.828;2022-12-18T04:24:21;5.07;;;4.05;;
40635;SDS011;26642;55.766;37.828;2022-12-18T04:27:01;4.63;;;4.07;;
40635;SDS011;26642;55.766;37.828;2022-12-18T04:29:32;4.13;;;3.60;;
40635;SDS011;26642;55.766;37.828;2022-12-18T04:31:58;5.75;;;4.13;;
40635;SDS011;26642;55.766;37.828;2022-12-18T04:34:26;4.93;;;4.20;;
40635;SDS011;26642;55.766;37.828;2022-12-18T04:36:53;5.22;;;4.30;;
40635;SDS011;26642;55.766;37.828;2022-12-18T04:39:20;5.30;;;4.03;;
40635;SDS011;26642;55.766;37.828;2022-12-18T04:41:49;4.40;;;3.92;;
40635;SDS011;26642;55.766;37.828;2022-12-18T04:44:15;5.85;;;4.43;;
40635;SDS011;26642;55.766;37.828;2022-12-18T04:46:41;5.88;;;4.10;;
40635;SDS011;26642;55.766;37.828;2022-12-18T04:49:07;5.25;;;4.10;;
40635;SDS011;26642;55.766;37.828;2022-12-18T04:51:35;5.22;;;4.10;;
40635;SDS011;26642;55.766;37.828;2022-12-18T04:54:01;4.90;;;3.80;;
40635;SDS011;26642;55.766;37.828;2022-12-18T04:56:27;5.05;;;4.10;;
40635;SDS011;26642;55.766;37.828;2022-12-18T04:58:53;4.90;;;3.45;;
40635;SDS011;26642;55.766;37.828;2022-12-18T05:01:19;5.93;;;4.22;;
40635;SDS011;26642;55.766;37.828;2022-12-18T05:03:45;5.05;;;4.22;;
40635;SDS011;26642;55.766;37.828;2022-12-18T05:06:11;4.95;;;3.88;;
40635;SDS011;26642;55.766;37.828;2022-12-18T05:08:37;4.88;;;4.13;;
40635;SDS011;26642;55.766;37.828;2022-12-18T05:11:07;4.55;;;3.80;;
40635;SDS011;26642;55.766;37.828;2022-12-18T05:13:35;4.53;;;3.83;;
40635;SDS011;26642;55.766;37.828;2022-12-18T05:16:03;4.35;;;3.75;;
40635;SDS011;26642;55.766;37.828;2022-12-18T05:18:30;6.43;;;3.72;;
40635;SDS011;26642;55.766;37.828;2022-12-18T05:20:56;5.10;;;3.95;;
40635;SDS011;26642;55.766;37.828;2022-12-18T05:23:23;4.25;;;3.72;;
40635;SDS011;26642;55.766;37.828;2022-12-18T05:28:20;4.50;;;3.50;;
40635;SDS011;26642;55.766;37.828;2022-12-18T05:30:48;5.82;;;3.67;;
40635;SDS011;26642;55.766;37.828;2022-12-18T05:33:15;4.50;;;3.70;;
40635;SDS011;26642;55.766;37.828;2022-12-18T05:35:41;4.35;;;3.90;;
40635;SDS011;26642;55.766;37.828;2022-12-18T05:38:07;4.68;;;3.80;;
40635;SDS011;26642;55.766;37.828;2022-12-18T05:40:33;4.70;;;3.80;;
40635;SDS011;26642;55.766;37.828;2022-12-18T05:42:59;4.20;;;3.40;;
40635;SDS011;26642;55.766;37.828;2022-12-18T05:45:25;4.45;;;3.45;;
40635;SDS011;26642;55.766;37.828;2022-12-18T05:47:51;4.07;;;3.63;;
40635;SDS011;26642;55.766;37.828;2022-12-18T05:50:17;5.22;;;4.10;;
40635;SDS011;26642;55.766;37.828;2022-12-18T05:52:43;5.03;;;3.75;;
40635;SDS011;26642;55.766;37.828;2022-12-18T05:55:08;4.95;;;3.75;;
40635;SDS011;26642;55.766;37.828;2022-12-18T05:57:34;5.30;;;3.78;;
40635;SDS011;26642;55.766;37.828;2022-12-18T06:00:01;4.03;;;3.50;;
40635;SDS011;26642;55.766;37.828;2022-12-18T06:02:37;4.75;;;3.85;;
40635;SDS011;26642;55.766;37.828;2022-12-18T06:05:03;5.72;;;4.20;;
40635;SDS011;26642;55.766;37.828;2022-12-18T06:07:29;4.32;;;3.70;;
40635;SDS011;26642;55.766;37.828;2022-12-18T06:09:56;4.53;;;3.60;;
40635;SDS011;26642;55.766;37.828;2022-12-18T06:12:22;5.45;;;3.63;;
40635;SDS011;26642;55.766;37.828;2022-12-18T06:14:48;4.90;;;3.80;;
40635;SDS011;26642;55.766;37.828;2022-12-18T06:17:14;4.68;;;3.70;;
40635;SDS011;26642;55.766;37.828;2022-12-18T06:19:40;4.90;;;4.03;;
40635;SDS011;26642;55.766;37.828;2022-12-18T06:22:06;4.30;;;3.53;;
40635;SDS011;26642;55.766;37.828;2022-12-18T06:24:32;4.65;;;3.55;;
40635;SDS011;26642;55.766;37.828;2022-12-18T06:26:58;4.07;;;3.50;;
40635;SDS011;26642;55.766;37.828;2022-12-18T06:29:24;4.32;;;3.53;;
40635;SDS011;26642;55.766;37.828;2022-12-18T06:31:50;4.82;;;3.83;;
40635;SDS011;26642;55.766;37.828;2022-12-18T06:34:16;5.47;;;4.38;;
40635;SDS011;26642;55.766;37.828;2022-12-18T06:36:41;4.55;;;3.50;;
40635;SDS011;26642;55.766;37.828;2022-12-18T06:39:07;4.15;;;3.75;;
40635;SDS011;26642;55.766;37.828;2022-12-18T06:41:33;4.20;;;3.60;;
40635;SDS011;26642;55.766;37.828;2022-12-18T06:43:59;4.47;;;3.95;;
40635;SDS011;26642;55.766;37.828;2022-12-18T06:46:26;5.38;;;3.90;;
40635;SDS011;26642;55.766;37.828;2022-12-18T06:48:53;4.68;;;3.85;;
40635;SDS011;26642;55.766;37.828;2022-12-18T06:51:19;4.90;;;3.78;;
40635;SDS011;26642;55.766;37.828;2022-12-18T06:53:46;4.90;;;3.80;;
40635;SDS011;26642;55.766;37.828;2022-12-18T06:56:12;5.68;;;3.80;;
40635;SDS011;26642;55.766;37.828;2022-12-18T06:58:38;5.20;;;3.90;;
40635;SDS011;26642;55.766;37.828;2022-12-18T07:01:06;5.78;;;4.20;;
40635;SDS011;26642;55.766;37.828;2022-12-18T07:03:34;4.65;;;3.88;;
40635;SDS011;26642;55.766;37.828;2022-12-18T07:06:01;4.68;;;3.97;;
40635;SDS011;26642;55.766;37.828;2022-12-18T07:08:28;5.00;;;3.78;;
40635;SDS011;26642;55.766;37.828;2022-12-18T07:10:55;6.35;;;4.30;;
40635;SDS011;26642;55.766;37.828;2022-12-18T07:13:21;4.55;;;4.07;;
40635;SDS011;26642;55.766;37.828;2022-12-18T07:15:47;8.23;;;4.15;;
40635;SDS011;26642;55.766;37.828;2022-12-18T07:18:13;4.80;;;3.45;;
40635;SDS011;26642;55.766;37.828;2022-12-18T07:20:39;4.70;;;3.80;;
40635;SDS011;26642;55.766;37.828;2022-12-18T07:23:05;5.30;;;4.00;;
40635;SDS011;26642;55.766;37.828;2022-12-18T07:25:34;4.95;;;3.90;;
40635;SDS011;26642;55.766;37.828;2022-12-18T07:28:00;4.97;;;4.03;;
40635;SDS011;26642;55.766;37.828;2022-12-18T07:30:27;4.43;;;3.55;;
40635;SDS011;26642;55.766;37.828;2022-12-18T07:32:53;5.28;;;3.80;;
40635;SDS011;26642;55.766;37.828;2022-12-18T07:35:18;6.47;;;4.35;;
40635;SDS011;26642;55.766;37.828;2022-12-18T07:37:44;5.97;;;4.03;;
40635;SDS011;26642;55.766;37.828;2022-12-18T07:40:10;4.70;;;3.70;;
40635;SDS011;26642;55.766;37.828;2022-12-18T07:42:37;5.22;;;4.00;;
40635;SDS011;26642;55.766;37.828;2022-12-18T07:45:03;6.15;;;4.05;;
40635;SDS011;26642;55.766;37.828;2022-12-18T07:47:36;4.82;;;3.70;;
40635;SDS011;26642;55.766;37.828;2022-12-18T07:50:03;10.73;;;3.67;;
40635;SDS011;26642;55.766;37.828;2022-12-18T07:52:29;6.78;;;3.97;;
40635;SDS011;26642;55.766;37.828;2022-12-18T07:54:55;7.45;;;4.32;;
40635;SDS011;26642;55.766;37.828;2022-12-18T07:57:21;6.30;;;4.00;;
40635;SDS011;26642;55.766;37.828;2022-12-18T07:59:47;7.38;;;4.25;;
40635;SDS011;26642;55.766;37.828;2022-12-18T08:02:13;6.60;;;4.05;;
40635;SDS011;26642;55.766;37.828;2022-12-18T08:04:39;4.90;;;3.95;;
40635;SDS011;26642;55.766;37.828;2022-12-18T08:07:05;6.03;;;4.30;;
40635;SDS011;26642;55.766;37.828;2022-12-18T08:09:31;6.70;;;4.32;;
40635;SDS011;26642;55.766;37.828;2022-12-18T08:11:57;7.70;;;4.20;;
40635;SDS011;26642;55.766;37.828;2022-12-18T08:14:23;7.10;;;4.55;;
40635;SDS011;26642;55.766;37.828;2022-12-18T08:16:49;6.35;;;4.22;;
40635;SDS011;26642;55.766;37.828;2022-12-18T08:19:15;7.05;;;3.88;;
40635;SDS011;26642;55.766;37.828;2022-12-18T08:21:41;6.40;;;4.40;;
40635;SDS011;26642;55.766;37.828;2022-12-18T08:24:08;5.40;;;3.80;;
40635;SDS011;26642;55.766;37.828;2022-12-18T08:26:35;6.18;;;4.47;;
40635;SDS011;26642;55.766;37.828;2022-12-18T08:29:01;8.05;;;4.30;;
40635;SDS011;26642;55.766;37.828;2022-12-18T08:31:27;8.15;;;4.60;;
40635;SDS011;26642;55.766;37.828;2022-12-18T08:33:55;5.45;;;4.00;;
40635;SDS011;26642;55.766;37.828;2022-12-18T08:36:21;6.13;;;4.47;;
40635;SDS011;26642;55.766;37.828;2022-12-18T08:38:48;5.22;;;4.30;;
40635;SDS011;26642;55.766;37.828;2022-12-18T08:41:15;4.78;;;3.92;;
40635;SDS011;26642;55.766;37.828;2022-12-18T08:43:42;6.07;;;4.05;;
40635;SDS011;26642;55.766;37.828;2022-12-18T08:46:30;4.50;;;3.65;;
40635;SDS011;26642;55.766;37.828;2022-12-18T08:49:01;5.55;;;3.90;;
40635;SDS011;26642;55.766;37.828;2022-12-18T08:51:28;5.30;;;3.70;;
40635;SDS011;26642;55.766;37.828;2022-12-18T08:53:54;5.68;;;3.70;;
40635;SDS011;26642;55.766;37.828;2022-12-18T08:56:20;8.32;;;4.00;;
40635;SDS011;26642;55.766;37.828;2022-12-18T08:58:46;4.40;;;3.03;;
40635;SDS011;26642;55.766;37.828;2022-12-18T09:01:12;5.57;;;4.00;;
40635;SDS011;26642;55.766;37.828;2022-12-18T09:03:39;5.03;;;3.50;;
40635;SDS011;26642;55.766;37.828;2022-12-18T09:06:05;5.03;;;3.22;;
40635;SDS011;26642;55.766;37.828;2022-12-18T09:08:35;4.63;;;3.33;;
40635;SDS011;26642;55.766;37.828;2022-12-18T09:11:04;6.32;;;3.47;;
40635;SDS011;26642;55.766;37.828;2022-12-18T09:13:35;5.72;;;3.63;;
40635;SDS011;26642;55.766;37.828;2022-12-18T09:16:02;4.63;;;3.22;;
40635;SDS011;26642;55.766;37.828;2022-12-18T09:18:28;4.00;;;3.05;;
40635;SDS011;26642;55.766;37.828;2022-12-18T09:20:54;5.22;;;2.95;;
40635;SDS011;26642;55.766;37.828;2022-12-18T09:23:20;5.70;;;3.15;;
40635;SDS011;26642;55.766;37.828;2022-12-18T09:25:46;6.70;;;3.47;;
40635;SDS011;26642;55.766;37.828;2022-12-18T09:28:17;4.35;;;3.40;;
40635;SDS011;26642;55.766;37.828;2022-12-18T09:30:44;5.88;;;2.92;;
40635;SDS011;26642;55.766;37.828;2022-12-18T09:33:12;5.03;;;3.42;;
40635;SDS011;26642;55.766;37.828;2022-12-18T09:35:39;4.97;;;3.15;;
40635;SDS011;26642;55.766;37.828;2022-12-18T09:38:06;5.10;;;3.58;;
40635;SDS011;26642;55.766;37.828;2022-12-18T09:40:34;5.63;;;3.13;;
40635;SDS011;26642;55.766;37.828;2022-12-18T09:43:05;7.18;;;3.33;;
40635;SDS011;26642;55.766;37.828;2022-12-18T09:45:40;7.13;;;3.33;;
40635;SDS011;26642;55.766;37.828;2022-12-18T09:48:10;5.35;;;2.83;;
40635;SDS011;26642;55.766;37.828;2022-12-18T09:50:46;3.65;;;2.97;;
40635;SDS011;26642;55.766;37.828;2022-12-18T09:53:20;4.53;;;2.95;;
40635;SDS011;26642;55.766;37.828;2022-12-18T09:55:51;4.32;;;2.95;;
40635;SDS011;26642;55.766;37.828;2022-12-18T09:58:21;5.18;;;3.13;;
40635;SDS011;26642;55.766;37.828;2022-12-18T10:00:54;7.13;;;3.42;;
40635;SDS011;26642;55.766;37.828;2022-12-18T10:03:20;5.57;;;3.25;;
40635;SDS011;26642;55.766;37.828;2022-12-18T10:11:32;4.20;;;2.88;;
40635;SDS011;26642;55.766;37.828;2022-12-18T10:19:34;6.50;;;2.90;;
40635;SDS011;26642;55.766;37.828;2022-12-18T10:25:01;5.70;;;3.33;;
40635;SDS011;26642;55.766;37.828;2022-12-18T10:27:29;6.43;;;2.97;;
40635;SDS011;26642;55.766;37.828;2022-12-18T10:29:56;5.63;;;3.17;;
40635;SDS011;26642;55.766;37.828;2022-12-18T10:32:27;6.22;;;3.40;;
40635;SDS011;26642;55.766;37.828;2022-12-18T10:34:56;3.85;;;2.72;;
40635;SDS011;26642;55.766;37.828;2022-12-18T10:37:25;3.85;;;2.95;;
40635;SDS011;26642;55.766;37.828;2022-12-18T10:40:14;4.30;;;2.80;;
40635;SDS011;26642;55.766;37.828;2022-12-18T10:42:40;3.83;;;2.78;;
40635;SDS011;26642;55.766;37.828;2022-12-18T10:45:10;5.47;;;3.17;;
40635;SDS011;26642;55.766;37.828;2022-12-18T10:47:49;6.30;;;2.97;;
40635;SDS011;26642;55.766;37.828;2022-12-18T10:50:18;5.70;;;2.83;;
40635;SDS011;26642;55.766;37.828;2022-12-18T10:52:54;7.75;;;3.33;;
40635;SDS011;26642;55.766;37.828;2022-12-18T10:55:30;5.45;;;3.10;;
40635;SDS011;26642;55.766;37.828;2022-12-18T11:01:09;4.82;;;3.00;;
40635;SDS011;26642;55.766;37.828;2022-12-18T11:03:43;4.70;;;3.05;;
40635;SDS011;26642;55.766;37.828;2022-12-18T11:08:42;5.63;;;3.10;;
40635;SDS011;26642;55.766;37.828;2022-12-18T11:11:19;5.47;;;3.22;;
40635;SDS011;26642;55.766;37.828;2022-12-18T11:13:52;6.35;;;2.70;;
40635;SDS011;26642;55.766;37.828;2022-12-18T11:16:26;4.78;;;2.72;;
40635;SDS011;26642;55.766;37.828;2022-12-18T11:19:06;6.22;;;3.03;;
40635;SDS011;26642;55.766;37.828;2022-12-18T11:21:41;4.35;;;2.92;;
40635;SDS011;26642;55.766;37.828;2022-12-18T11:24:15;5.93;;;2.65;;
40635;SDS011;26642;55.766;37.828;2022-12-18T11:26:56;5.88;;;3.00;;
40635;SDS011;26642;55.766;37.828;2022-12-18T11:29:35;4.35;;;2.55;;
40635;SDS011;26642;55.766;37.828;2022-12-18T11:32:19;4.22;;;2.95;;
40635;SDS011;26642;55.766;37.828;2022-12-18T11:34:48;4.03;;;2.40;;
40635;SDS011;26642;55.766;37.828;2022-12-18T11:37:21;3.58;;;2.60;;
40635;SDS011;26642;55.766;37.828;2022-12-18T11:39:52;3.30;;;2.58;;
40635;SDS011;26642;55.766;37.828;2022-12-18T11:47:40;5.20;;;3.25;;
40635;SDS011;26642;55.766;37.828;2022-12-18T11:53:17;3.45;;;2.38;;
40635;SDS011;26642;55.766;37.828;2022-12-18T12:00:54;2.83;;;2.55;;
40635;SDS011;26642;55.766;37.828;2022-12-18T12:12:14;3.65;;;2.45;;
40635;SDS011;26642;55.766;37.828;2022-12-18T12:20:10;3.25;;;2.47;;
40635;SDS011;26642;55.766;37.828;2022-12-18T12:26:32;3.97;;;2.53;;
40635;SDS011;26642;55.766;37.828;2022-12-18T12:34:17;5.70;;;2.60;;
40635;SDS011;26642;55.766;37.828;2022-12-18T12:37:15;3.40;;;2.22;;
40635;SDS011;26642;55.766;37.828;2022-12-18T12:39:54;4.38;;;2.75;;
40635;SDS011;26642;55.766;37.828;2022-12-18T12:45:30;2.85;;;2.05;;
40635;SDS011;26642;55.766;37.828;2022-12-18T12:48:05;6.15;;;2.10;;
40635;SDS011;26642;55.766;37.828;2022-12-18T12:50:41;3.88;;;2.20;;
40635;SDS011;26642;55.766;37.828;2022-12-18T12:53:08;2.05;;;1.85;;
40635;SDS011;26642;55.766;37.828;2022-12-18T12:55:40;2.90;;;1.85;;
40635;SDS011;26642;55.766;37.828;2022-12-18T12:58:14;2.53;;;2.00;;
40635;SDS011;26642;55.766;37.828;2022-12-18T13:00:53;3.75;;;1.85;;
40635;SDS011;26642;55.766;37.828;2022-12-18T13:03:55;2.72;;;2.40;;
40635;SDS011;26642;55.766;37.828;2022-12-18T13:09:11;4.40;;;2.70;;
40635;SDS011;26642;55.766;37.828;2022-12-18T13:11:43;4.55;;;2.90;;
40635;SDS011;26642;55.766;37.828;2022-12-18T13:14:31;4.82;;;2.92;;
40635;SDS011;26642;55.766;37.828;2022-12-18T13:17:14;3.97;;;3.22;;
40635;SDS011;26642;55.766;37.828;2022-12-18T13:19:40;4.60;;;3.42;;
40635;SDS011;26642;55.766;37.828;2022-12-18T13:22:28;10.43;;;4.22;;
40635;SDS011;26642;55.766;37.828;2022-12-18T13:25:01;8.10;;;4.90;;
40635;SDS011;26642;55.766;37.828;2022-12-18T13:40:55;9.10;;;6.28;;
40635;SDS011;26642;55.766;37.828;2022-12-18T13:43:43;9.43;;;6.13;;
40635;SDS011;26642;55.766;37.828;2022-12-18T13:48:54;11.95;;;6.00;;
40635;SDS011;26642;55.766;37.828;2022-12-18T13:51:22;10.65;;;5.38;;
40635;SDS011;26642;55.766;37.828;2022-12-18T13:53:54;7.13;;;5.15;;
40635;SDS011;26642;55.766;37.828;2022-12-18T13:56:29;9.40;;;4.93;;
40635;SDS011;26642;55.766;37.828;2022-12-18T13:59:14;9.77;;;4.43;;
40635;SDS011;26642;55.766;37.828;2022-12-18T14:02:12;7.72;;;5.03;;
40635;SDS011;26642;55.766;37.828;2022-12-18T14:04:35;8.75;;;5.32;;
40635;SDS011;26642;55.766;37.828;2022-12-18T14:07:02;9.15;;;5.20;;
40635;SDS011;26642;55.766;37.828;2022-12-18T14:09:45;10.07;;;5.40;;
40635;SDS011;26642;55.766;37.828;2022-12-18T14:12:20;6.97;;;5.10;;
40635;SDS011;26642;55.766;37.828;2022-12-18T14:15:43;8.73;;;5.18;;
40635;SDS011;26642;55.766;37.828;2022-12-18T14:20:48;10.68;;;5.45;;
40635;SDS011;26642;55.766;37.828;2022-12-18T14:26:01;12.95;;;6.03;;
40635;SDS011;26642;55.766;37.828;2022-12-18T14:28:29;9.43;;;5.53;;
40635;SDS011;26642;55.766;37.828;2022-12-18T14:30:55;11.65;;;6.40;;
40635;SDS011;26642;55.766;37.828;2022-12-18T14:33:22;10.15;;;5.88;;
40635;SDS011;26642;55.766;37.828;2022-12-18T14:35:55;10.80;;;5.97;;
40635;SDS011;26642;55.766;37.828;2022-12-18T14:38:36;10.85;;;5.93;;
40635;SDS011;26642;55.766;37.828;2022-12-18T14:41:09;9.77;;;5.60;;
40635;SDS011;26642;55.766;37.828;2022-12-18T14:43:37;12.05;;;5.93;;
40635;SDS011;26642;55.766;37.828;2022-12-18T14:46:05;9.20;;;5.35;;
40635;SDS011;26642;55.766;37.828;2022-12-18T14:48:51;10.68;;;5.68;;
40635;SDS011;26642;55.766;37.828;2022-12-18T14:51:17;9.95;;;5.47;;
40635;SDS011;26642;55.766;37.828;2022-12-18T14:53:46;11.40;;;5.47;;
40635;SDS011;26642;55.766;37.828;2022-12-18T14:56:18;9.85;;;5.80;;
40635;SDS011;26642;55.766;37.828;2022-12-18T15:01:30;7.57;;;5.18;;
40635;SDS011;26642;55.766;37.828;2022-12-18T15:04:00;9.55;;;5.40;;
40635;SDS011;26642;55.766;37.828;2022-12-18T15:06:32;8.32;;;5.65;;
40635;SDS011;26642;55.766;37.828;2022-12-18T15:09:01;9.07;;;5.40;;
40635;SDS011;26642;55.766;37.828;2022-12-18T15:11:43;8.63;;;5.20;;
40635;SDS011;26642;55.766;37.828;2022-12-18T15:14:24;8.23;;;5.03;;
40635;SDS011;26642;55.766;37.828;2022-12-18T15:16:58;8.10;;;4.78;;
40635;SDS011;26642;55.766;37.828;2022-12-18T15:19:35;8.60;;;5.13;;
40635;SDS011;26642;55.766;37.828;2022-12-18T15:24:46;6.97;;;4.55;;
40635;SDS011;26642;55.766;37.828;2022-12-18T15:27:23;6.68;;;4.22;;
40635;SDS011;26642;55.766;37.828;2022-12-18T15:30:01;7.93;;;4.22;;
40635;SDS011;26642;55.766;37.828;2022-12-18T15:32:34;7.50;;;4.13;;
40635;SDS011;26642;55.766;37.828;2022-12-18T15:37:48;6.50;;;4.07;;
40635;SDS011;26642;55.766;37.828;2022-12-18T15:40:18;5.63;;;4.07;;
40635;SDS011;26642;55.766;37.828;2022-12-18T15:42:52;5.93;;;4.10;;
40635;SDS011;26642;55.766;37.828;2022-12-18T15:45:40;5.35;;;3.47;;
40635;SDS011;26642;55.766;37.828;2022-12-18T15:48:40;6.15;;;3.80;;
40635;SDS011;26642;55.766;37.828;2022-12-18T15:51:04;7.05;;;3.92;;
40635;SDS011;26642;55.766;37.828;2022-12-18T15:53:35;4.90;;;3.65;;
40635;SDS011;26642;55.766;37.828;2022-12-18T15:56:01;5.00;;;3.47;;
40635;SDS011;26642;55.766;37.828;2022-12-18T15:58:45;5.13;;;3.30;;
40635;SDS011;26642;55.766;37.828;2022-12-18T16:01:11;4.63;;;3.30;;
40635;SDS011;26642;55.766;37.828;2022-12-18T16:03:37;4.85;;;3.42;;
40635;SDS011;26642;55.766;37.828;2022-12-18T16:06:03;6.78;;;3.70;;
40635;SDS011;26642;55.766;37.828;2022-12-18T16:08:29;5.45;;;3.50;;
40635;SDS011;26642;55.766;37.828;2022-12-18T16:10:56;4.80;;;3.13;;
40635;SDS011;26642;55.766;37.828;2022-12-18T16:13:23;7.68;;;3.20;;
40635;SDS011;26642;55.766;37.828;2022-12-18T16:15:49;5.95;;;3.03;;
40635;SDS011;26642;55.766;37.828;2022-12-18T16:18:15;5.28;;;2.70;;
40635;SDS011;26642;55.766;37.828;2022-12-18T16:20:41;6.63;;;3.10;;
40635;SDS011;26642;55.766;37.828;2022-12-18T16:23:07;5.22;;;3.47;;
40635;SDS011;26642;55.766;37.828;2022-12-18T16:25:33;5.93;;;2.60;;
40635;SDS011;26642;55.766;37.828;2022-12-18T16:27:59;8.93;;;3.25;;
40635;SDS011;26642;55.766;37.828;2022-12-18T16:30:27;5.55;;;2.95;;
40635;SDS011;26642;55.766;37.828;2022-12-18T16:32:55;4.80;;;3.60;;
40635;SDS011;26642;55.766;37.828;2022-12-18T16:35:25;3.67;;;2.97;;
40635;SDS011;26642;55.766;37.828;2022-12-18T16:37:52;4.10;;;2.80;;
40635;SDS011;26642;55.766;37.828;2022-12-18T16:40:19;6.57;;;2.97;;
40635;SDS011;26642;55.766;37.828;2022-12-18T16:42:45;4.35;;;3.22;;
40635;SDS011;26642;55.766;37.828;2022-12-18T16:45:13;3.90;;;2.55;;
40635;SDS011;26642;55.766;37.828;2022-12-18T16:47:41;5.20;;;2.90;;
40635;SDS011;26642;55.766;37.828;2022-12-18T16:50:07;3.92;;;3.10;;
40635;SDS011;26642;55.766;37.828;2022-12-18T16:52:35;4.00;;;2.95;;
40635;SDS011;26642;55.766;37.828;2022-12-18T16:55:02;3.95;;;2.80;;
40635;SDS011;26642;55.766;37.828;2022-12-18T16:57:28;4.88;;;3.00;;